Time;durP1;ratioP1;P1;durP2;ratioP2;P2;SDS_P1;SDS_P2;PMS_P1;PMS_P2;Temp;Humidity;BMP_temperature;BMP_pressure;BME280_temperature;BME280_humidity;BME280_pressure;Samples;Min_cycle;Max_cycle;Signal;HPM_P1;HPM_P2
2023/07/10 00:00:55;;;;;;;8.77;5.13;;;;;;;20.89;100.00;93262.56;4951262;28;20525;-80
2023/07/10 00:03:20;;;;;;;8.82;5.53;;;;;;;20.88;100.00;93261.00;4944448;28;20032;-80
2023/07/10 00:05:46;;;;;;;9.65;5.50;;;;;;;20.85;100.00;93264.34;4949264;28;20026;-80
2023/07/10 00:08:11;;;;;;;9.38;6.13;;;;;;;20.84;100.00;93254.03;4932905;29;20051;-80
2023/07/10 00:10:37;;;;;;;8.73;5.70;;;;;;;20.83;100.00;93247.13;4951512;28;20039;-80
2023/07/10 00:13:04;;;;;;;11.40;5.50;;;;;;;20.81;100.00;93250.16;4951173;28;20051;-80
2023/07/10 00:15:30;;;;;;;9.95;5.25;;;;;;;20.79;100.00;93247.03;4954407;28;20023;-80
2023/07/10 00:17:55;;;;;;;9.82;5.82;;;;;;;20.77;100.00;93244.69;4929229;29;20043;-80
2023/07/10 00:20:24;;;;;;;8.90;5.57;;;;;;;20.78;100.00;93248.13;4934368;29;20027;-80
2023/07/10 00:22:50;;;;;;;11.02;5.93;;;;;;;20.76;100.00;93243.16;4953229;28;20420;-80
2023/07/10 00:25:17;;;;;;;8.68;5.38;;;;;;;20.72;100.00;93241.50;4950877;28;20039;-80
2023/07/10 00:27:44;;;;;;;9.98;5.45;;;;;;;20.73;100.00;93237.72;4957862;29;20042;-80
2023/07/10 00:30:16;;;;;;;12.77;5.75;;;;;;;20.72;100.00;93246.81;4932956;29;20039;-80
2023/07/10 00:32:46;;;;;;;8.52;5.47;;;;;;;20.71;100.00;93250.56;4935346;29;20028;-80
2023/07/10 00:35:17;;;;;;;9.00;5.53;;;;;;;20.68;100.00;93236.03;4951231;28;20035;-80
2023/07/10 00:37:49;;;;;;;9.37;5.10;;;;;;;20.65;100.00;93238.56;4956966;28;20041;-80
2023/07/10 00:40:22;;;;;;;11.10;5.32;;;;;;;20.65;100.00;93235.91;4956149;28;20291;-80
2023/07/10 00:42:58;;;;;;;10.35;5.22;;;;;;;20.64;100.00;93242.34;4957610;29;20043;-80
2023/07/10 00:45:24;;;;;;;10.25;5.68;;;;;;;20.61;100.00;93238.47;4930628;29;20430;-80
2023/07/10 00:48:06;;;;;;;13.68;6.30;;;;;;;20.58;100.00;93237.25;4952289;29;20055;-80
2023/07/10 00:50:39;;;;;;;9.30;5.45;;;;;;;20.57;100.00;93240.22;4950750;28;20063;-81
2023/07/10 00:53:15;;;;;;;8.60;5.45;;;;;;;20.53;100.00;93245.41;4954830;28;20126;-80
2023/07/10 00:55:43;;;;;;;9.73;5.60;;;;;;;20.51;100.00;93246.84;4954266;28;20031;-80
2023/07/10 00:58:32;;;;;;;10.23;5.47;;;;;;;20.49;100.00;93247.19;4940073;29;20034;-80
2023/07/10 01:00:59;;;;;;;10.45;5.65;;;;;;;20.49;100.00;93252.50;4931500;29;20497;-80
2023/07/10 01:03:24;;;;;;;8.35;5.30;;;;;;;20.48;100.00;93245.63;4956980;28;20108;-79
2023/07/10 01:05:50;;;;;;;8.15;5.63;;;;;;;20.47;100.00;93251.28;4938831;29;20043;-79
2023/07/10 01:08:16;;;;;;;15.68;5.70;;;;;;;20.46;100.00;93247.81;4957884;29;20046;-79
2023/07/10 01:10:41;;;;;;;9.50;5.50;;;;;;;20.44;100.00;93239.41;4957420;29;20036;-80
2023/07/10 01:13:09;;;;;;;8.55;5.72;;;;;;;20.43;100.00;93242.41;4955178;29;20046;-79
2023/07/10 01:15:35;;;;;;;10.05;5.72;;;;;;;20.42;100.00;93244.25;4929108;29;20044;-79
2023/07/10 01:18:02;;;;;;;10.80;5.97;;;;;;;20.40;100.00;93238.53;4938584;29;20054;-80
2023/07/10 01:20:48;;;;;;;9.57;5.80;;;;;;;20.36;100.00;93224.31;4956895;29;20114;-78
2023/07/10 01:23:16;;;;;;;10.75;6.05;;;;;;;20.40;100.00;93235.88;4938152;29;20035;-80
2023/07/10 01:25:55;;;;;;;15.07;6.20;;;;;;;20.36;100.00;93232.31;4933474;29;20054;-79
2023/07/10 01:28:21;;;;;;;10.95;5.75;;;;;;;20.35;100.00;93230.72;4954751;29;20073;-80
2023/07/10 01:30:50;;;;;;;12.65;5.90;;;;;;;20.30;100.00;93229.06;4957822;28;20027;-78
2023/07/10 01:33:22;;;;;;;11.05;6.03;;;;;;;20.32;100.00;93231.41;4945550;28;20497;-77
2023/07/10 01:35:49;;;;;;;;;;;;;;;20.32;100.00;93234.06;4941864;29;20182;-77
2023/07/10 01:38:15;;;;;;;14.88;6.10;;;;;;;20.32;100.00;93234.06;4954758;29;20377;-79
2023/07/10 01:40:47;;;;;;;13.70;6.15;;;;;;;20.30;100.00;93236.25;4938319;29;20059;-81
2023/07/10 01:43:14;;;;;;;11.88;5.88;;;;;;;20.30;100.00;93237.03;4954700;29;20050;-79
2023/07/10 01:45:44;;;;;;;13.77;6.57;;;;;;;20.28;100.00;93235.81;4941892;29;20509;-78
2023/07/10 01:48:13;;;;;;;10.85;6.00;;;;;;;20.26;100.00;93230.03;4931583;29;20574;-79
2023/07/10 01:50:39;;;;;;;10.90;6.50;;;;;;;20.27;100.00;93239.59;4918644;29;20032;-79
2023/07/10 01:53:08;;;;;;;10.88;6.00;;;;;;;20.25;100.00;93233.81;4929741;29;20055;-79
2023/07/10 01:55:38;;;;;;;10.77;6.07;;;;;;;20.24;100.00;93243.69;4909808;29;20111;-79
2023/07/10 01:58:04;;;;;;;11.60;6.40;;;;;;;20.23;100.00;93242.13;4918097;29;20170;-79
2023/07/10 02:00:30;;;;;;;11.32;6.45;;;;;;;20.21;100.00;93246.22;4911309;29;20040;-79
2023/07/10 02:02:56;;;;;;;10.88;5.93;;;;;;;20.18;100.00;93237.78;4918881;29;20386;-79
2023/07/10 02:05:21;;;;;;;8.70;5.90;;;;;;;20.14;100.00;93242.19;4916846;29;20052;-78
2023/07/10 02:07:47;;;;;;;10.43;6.40;;;;;;;20.14;100.00;93247.50;4917048;29;20028;-79
2023/07/10 02:10:12;;;;;;;10.18;6.32;;;;;;;20.13;100.00;93251.28;4921958;29;20615;-79
2023/07/10 02:12:38;;;;;;;9.60;6.35;;;;;;;20.12;100.00;93247.06;4917327;29;20032;-79
2023/07/10 02:15:04;;;;;;;15.43;6.32;;;;;;;20.11;100.00;93237.53;4918183;29;20050;-79
2023/07/10 02:17:30;;;;;;;12.15;8.07;;;;;;;20.11;100.00;93242.84;4917189;29;20048;-79
2023/07/10 02:19:56;;;;;;;11.10;6.75;;;;;;;20.11;100.00;93244.75;4927039;29;20103;-79
2023/07/10 02:22:23;;;;;;;10.45;6.43;;;;;;;20.10;100.00;93253.81;4918087;29;20062;-79
2023/07/10 02:24:48;;;;;;;10.63;7.32;;;;;;;20.09;100.00;93247.72;4916627;29;20071;-78
2023/07/10 02:27:14;;;;;;;10.60;6.68;;;;;;;20.06;100.00;93237.75;4916571;29;20044;-79
2023/07/10 02:29:39;;;;;;;11.23;7.38;;;;;;;20.07;100.00;93249.94;4915526;29;20038;-80
2023/07/10 02:32:05;;;;;;;13.38;6.82;;;;;;;20.04;100.00;93250.59;4917243;29;20044;-78
2023/07/10 02:34:31;;;;;;;10.68;6.57;;;;;;;20.01;100.00;93256.53;4922475;29;20399;-79
2023/07/10 02:36:56;;;;;;;12.02;6.20;;;;;;;19.98;100.00;93246.56;4916853;29;20044;-79
2023/07/10 02:39:22;;;;;;;13.02;7.10;;;;;;;19.95;100.00;93250.66;4911238;29;20447;-79
2023/07/10 02:41:48;;;;;;;10.82;6.43;;;;;;;19.94;100.00;93246.44;4909704;29;20032;-79
2023/07/10 02:44:13;;;;;;;11.07;7.07;;;;;;;19.91;100.00;93251.63;4915946;29;20119;-80
2023/07/10 02:46:39;;;;;;;13.02;7.00;;;;;;;19.91;100.00;93256.94;4921017;29;20035;-79
2023/07/10 02:49:04;;;;;;;11.77;6.57;;;;;;;19.89;100.00;93254.59;4953976;29;20439;-78
2023/07/10 02:51:30;;;;;;;12.32;6.50;;;;;;;19.87;100.00;93245.41;4955388;28;20042;-79
2023/07/10 02:53:55;;;;;;;15.32;6.50;;;;;;;19.85;100.00;93259.00;4945921;29;20050;-78
2023/07/10 02:56:21;;;;;;;16.92;6.82;;;;;;;19.84;100.00;93246.06;4932282;28;20040;-79
2023/07/10 02:58:50;;;;;;;11.63;6.20;;;;;;;19.83;100.00;93247.16;4951666;29;20039;-79
2023/07/10 03:01:16;;;;;;;11.15;6.78;;;;;;;19.81;100.00;93249.38;4932564;29;20063;-81
2023/07/10 03:03:45;;;;;;;8.50;6.25;;;;;;;19.79;100.00;93252.34;4954932;29;20043;-80
2023/07/10 03:06:11;;;;;;;11.63;6.65;;;;;;;19.77;100.00;93249.25;4954117;28;20031;-80
2023/07/10 03:08:37;;;;;;;13.02;7.38;;;;;;;19.75;100.00;93243.47;4938712;29;20045;-79
2023/07/10 03:11:05;;;;;;;11.95;7.00;;;;;;;19.70;100.00;93247.13;4950173;29;20114;-80
2023/07/10 03:13:31;;;;;;;16.45;6.82;;;;;;;19.67;100.00;93242.41;4950173;29;20485;-80
2023/07/10 03:16:06;;;;;;;12.68;7.00;;;;;;;19.69;100.00;93247.44;4948532;28;20051;-80
2023/07/10 03:18:35;;;;;;;10.98;6.70;;;;;;;19.67;100.00;93253.03;4947740;29;20041;-81
2023/07/10 03:21:01;;;;;;;9.77;6.50;;;;;;;19.65;100.00;93249.91;4954250;28;20382;-80
2023/07/10 03:23:27;;;;;;;12.43;6.78;;;;;;;19.65;100.00;93246.47;4931013;29;20050;-80
2023/07/10 03:25:52;;;;;;;11.43;7.13;;;;;;;19.66;100.00;93250.72;4947906;28;20048;-80
2023/07/10 03:28:18;;;;;;;10.85;6.63;;;;;;;19.65;100.00;93247.25;4946052;29;20039;-79
2023/07/10 03:30:44;;;;;;;13.43;6.88;;;;;;;19.64;100.00;93250.25;4934692;29;20393;-80
2023/07/10 03:33:14;;;;;;;13.63;6.78;;;;;;;19.59;100.00;93245.91;4935010;29;20080;-80
2023/07/10 03:35:41;;;;;;;13.43;6.30;;;;;;;19.61;100.00;93248.22;4957002;28;20035;-80
2023/07/10 03:38:07;;;;;;;13.18;6.38;;;;;;;19.60;100.00;93259.97;4958529;28;20031;-80
2023/07/10 03:40:33;;;;;;;11.02;7.18;;;;;;;19.57;100.00;93258.72;4942893;29;20048;-80
2023/07/10 03:42:58;;;;;;;10.43;6.70;;;;;;;19.56;100.00;93257.16;4928647;29;20055;-80
2023/07/10 03:45:24;;;;;;;11.38;6.85;;;;;;;19.56;100.00;93263.25;4930832;29;20509;-80
2023/07/10 03:47:49;;;;;;;11.95;6.50;;;;;;;19.55;100.00;93266.25;4922834;29;20506;-80
2023/07/10 03:50:15;;;;;;;10.57;6.85;;;;;;;19.53;100.00;93263.13;4953861;29;20045;-80
2023/07/10 03:52:41;;;;;;;11.25;6.50;;;;;;;19.52;100.00;93272.19;4928126;29;20035;-80
2023/07/10 03:55:07;;;;;;;12.05;6.65;;;;;;;19.50;100.00;93269.88;4946999;28;20172;-78
2023/07/10 03:57:32;;;;;;;12.40;6.47;;;;;;;19.51;100.00;93274.06;4949655;29;20040;-81
2023/07/10 03:59:58;;;;;;;13.65;6.82;;;;;;;19.50;100.00;93274.41;4953375;28;20488;-83
2023/07/10 04:02:23;;;;;;;13.02;7.03;;;;;;;19.51;100.00;93283.91;4932263;29;20114;-83
2023/07/10 04:04:49;;;;;;;11.40;6.10;;;;;;;19.50;100.00;93280.50;4942614;28;20089;-83
2023/07/10 04:07:17;;;;;;;14.52;6.63;;;;;;;19.50;100.00;93277.06;4958388;28;20035;-82
2023/07/10 04:09:42;;;;;;;10.68;7.10;;;;;;;19.53;100.00;93271.09;4953711;29;20357;-82
2023/07/10 04:12:08;;;;;;;13.88;6.75;;;;;;;19.54;100.00;93276.09;4955796;28;20082;-82
2023/07/10 04:14:37;;;;;;;12.05;6.43;;;;;;;19.55;100.00;93280.28;4960826;28;20036;-82
2023/07/10 04:17:06;;;;;;;11.65;6.43;;;;;;;19.57;100.00;93274.66;4960307;28;20055;-82
2023/07/10 04:19:32;;;;;;;14.32;7.43;;;;;;;19.59;100.00;93267.16;4959621;28;20489;-82
2023/07/10 04:21:57;;;;;;;12.93;6.93;;;;;;;19.61;100.00;93264.16;4953273;28;20044;-80
2023/07/10 04:24:23;;;;;;;11.07;6.72;;;;;;;19.65;100.00;93265.06;4960098;28;20027;-81
2023/07/10 04:26:48;;;;;;;10.75;6.47;;;;;;;19.66;100.00;93256.78;4960756;28;20070;-81
2023/07/10 04:29:16;;;;;;;12.25;6.88;;;;;;;19.70;100.00;93257.72;4960505;28;20348;-81
2023/07/10 04:31:42;;;;;;;15.88;7.65;;;;;;;19.73;100.00;93254.41;4957549;29;20440;-82
2023/07/10 04:34:07;;;;;;;13.10;7.13;;;;;;;19.76;100.00;93253.00;4938193;29;20126;-82
2023/07/10 04:36:35;;;;;;;13.15;7.13;;;;;;;19.81;100.00;93257.31;4960276;28;20126;-81
2023/07/10 04:39:00;;;;;;;11.35;7.03;;;;;;;19.84;100.00;93259.34;4960599;28;20043;-81
2023/07/10 04:41:26;;;;;;;11.70;6.35;;;;;;;19.86;100.00;93257.13;4959791;29;20086;-81
2023/07/10 04:43:51;;;;;;;11.32;6.80;;;;;;;19.88;100.00;93266.34;4928677;29;20027;-82
2023/07/10 04:46:18;;;;;;;15.60;6.53;;;;;;;19.91;100.00;93271.00;4960305;28;20435;-82
2023/07/10 04:48:44;;;;;;;12.43;6.32;;;;;;;19.96;100.00;93270.03;4934109;28;20039;-81
2023/07/10 04:51:11;;;;;;;11.80;6.28;;;;;;;20.02;100.00;93274.06;4932495;29;20046;-80
2023/07/10 04:53:37;;;;;;;13.23;6.95;;;;;;;20.06;100.00;93269.66;4949904;28;20054;-81
2023/07/10 04:56:05;;;;;;;11.65;6.63;;;;;;;20.12;100.00;93276.28;4956844;28;20422;-81
2023/07/10 04:58:44;;;;;;;12.88;6.65;;;;;;;20.17;100.00;93272.66;4956546;28;20037;-82
2023/07/10 05:01:10;;;;;;;12.27;6.28;;;;;;;20.21;100.00;93273.56;4955609;28;20038;-81
2023/07/10 05:03:37;;;;;;;11.55;6.53;;;;;;;20.27;100.00;93280.25;4960305;28;20090;-81
2023/07/10 05:06:02;;;;;;;12.13;6.32;;;;;;;20.33;100.00;93280.78;4933768;29;20409;-81
2023/07/10 05:08:28;;;;;;;11.38;6.68;;;;;;;20.39;100.00;93287.47;4960405;28;20082;-81
2023/07/10 05:10:56;;;;;;;8.73;5.70;;;;;;;20.46;100.00;93290.38;4948286;29;20086;-82
2023/07/10 05:13:24;;;;;;;9.93;5.88;;;;;;;20.51;100.00;93282.22;4950545;29;20027;-81
2023/07/10 05:15:50;;;;;;;11.80;5.90;;;;;;;20.57;100.00;93280.13;4949358;28;20035;-80
2023/07/10 05:18:16;;;;;;;11.43;5.90;;;;;;;20.68;100.00;93285.81;4948169;29;20070;-80
2023/07/10 05:20:46;;;;;;;14.25;6.25;;;;;;;20.75;100.00;93292.13;4956286;29;20031;-81
2023/07/10 05:23:13;;;;;;;9.60;5.60;;;;;;;20.81;100.00;93291.94;4941132;29;20048;-81
2023/07/10 05:25:38;;;;;;;9.90;5.28;;;;;;;20.87;100.00;93291.38;4944915;29;20122;-81
2023/07/10 05:28:04;;;;;;;11.15;5.43;;;;;;;20.92;100.00;93283.19;4928733;29;20082;-81
2023/07/10 05:30:30;;;;;;;9.20;5.32;;;;;;;20.99;100.00;93283.41;4931334;29;20039;-82
2023/07/10 05:32:55;;;;;;;13.23;6.00;;;;;;;21.11;100.00;93292.53;4949487;28;20045;-82
2023/07/10 05:35:22;;;;;;;12.57;6.28;;;;;;;21.18;100.00;93290.06;4928986;29;20050;-81
2023/07/10 05:37:48;;;;;;;11.73;6.43;;;;;;;21.26;100.00;93291.88;4935891;29;20031;-81
2023/07/10 05:40:14;;;;;;;10.57;5.97;;;;;;;21.35;100.00;93289.88;4934024;29;20122;-81
2023/07/10 05:42:40;;;;;;;9.80;6.30;;;;;;;21.46;100.00;93286.75;4931882;29;20082;-81
2023/07/10 05:45:06;;;;;;;17.52;6.07;;;;;;;21.55;100.00;93279.47;4953502;28;20109;-82
2023/07/10 05:47:36;;;;;;;9.20;6.15;;;;;;;21.63;100.00;93273.22;4955202;29;20047;-81
2023/07/10 05:50:02;;;;;;;10.20;6.30;;;;;;;21.80;100.00;93280.19;4935445;29;20134;-82
2023/07/10 05:52:27;;;;;;;10.52;6.38;;;;;;;22.06;100.00;93279.75;4953703;28;20117;-82
2023/07/10 05:54:53;;;;;;;9.93;6.50;;;;;;;22.70;100.00;93282.63;4948310;28;20034;-82
2023/07/10 05:57:18;;;;;;;9.93;6.35;;;;;;;23.36;100.00;93279.28;4929171;29;20043;-82
2023/07/10 05:59:44;;;;;;;9.02;5.93;;;;;;;24.00;100.00;93279.97;4956413;29;20039;-80
2023/07/10 06:02:12;;;;;;;9.93;6.00;;;;;;;24.64;100.00;93280.44;4953258;28;20065;-82
2023/07/10 06:04:39;;;;;;;8.38;5.65;;;;;;;25.17;100.00;93279.78;4937636;29;20031;-83
2023/07/10 06:07:05;;;;;;;10.57;5.78;;;;;;;25.72;97.05;93282.94;4957373;28;20107;-83
2023/07/10 06:09:31;;;;;;;10.27;5.57;;;;;;;26.18;92.85;93282.78;4961163;28;20089;-84
2023/07/10 06:11:57;;;;;;;18.08;8.38;;;;;;;26.52;88.38;93290.09;4942878;29;20457;-84
2023/07/10 06:14:23;;;;;;;13.75;8.32;;;;;;;26.79;89.88;93280.84;4949274;29;20027;-84
2023/07/10 06:16:48;;;;;;;10.52;6.88;;;;;;;27.12;86.32;93276.50;4957324;28;20128;-82
2023/07/10 06:19:15;;;;;;;10.00;6.35;;;;;;;27.55;84.99;93289.53;4958898;28;20122;-81
2023/07/10 06:21:41;;;;;;;9.77;5.43;;;;;;;27.94;79.10;93289.03;4946204;28;20092;-81
2023/07/10 06:24:06;;;;;;;11.88;5.75;;;;;;;28.33;76.11;93288.47;4959081;29;20039;-82
2023/07/10 06:26:32;;;;;;;10.93;5.70;;;;;;;28.66;72.90;93287.44;4961152;28;20031;-81
2023/07/10 06:28:57;;;;;;;9.15;5.60;;;;;;;28.91;71.93;93276.72;4940893;29;20038;-81
2023/07/10 06:31:23;;;;;;;9.73;5.30;;;;;;;29.17;71.31;93275.63;4957653;29;20042;-81
2023/07/10 06:33:50;;;;;;;9.68;5.50;;;;;;;29.41;67.26;93273.31;4950364;29;20082;-81
2023/07/10 06:36:16;;;;;;;11.15;5.60;;;;;;;29.40;68.02;93272.53;4943264;29;20094;-81
2023/07/10 06:38:41;;;;;;;9.15;5.15;;;;;;;29.35;67.91;93283.69;4942668;29;20497;-81
2023/07/10 06:41:07;;;;;;;11.20;5.82;;;;;;;29.13;67.03;93285.63;4952991;28;20035;-81
2023/07/10 06:43:34;;;;;;;14.25;5.57;;;;;;;29.14;71.25;93273.69;4933700;29;20044;-81
2023/07/10 06:46:00;;;;;;;9.90;6.00;;;;;;;28.41;76.39;93277.31;4957970;28;20039;-81
2023/07/10 06:48:25;;;;;;;10.38;5.68;;;;;;;27.65;79.54;93283.47;4951223;28;20425;-81
2023/07/10 06:50:53;;;;;;;10.00;5.50;;;;;;;27.15;83.88;93283.81;4956325;29;20077;-81
2023/07/10 06:53:19;;;;;;;9.13;5.57;;;;;;;27.20;85.73;93286.22;4939363;29;20098;-81
2023/07/10 06:55:52;;;;;;;11.85;5.88;;;;;;;26.96;82.97;93289.41;4941846;28;20041;-80
2023/07/10 06:58:17;;;;;;;10.98;5.95;;;;;;;26.96;80.92;93286.75;4951188;29;20047;-83
2023/07/10 07:00:43;;;;;;;11.18;5.30;;;;;;;27.00;84.95;93290.22;4949827;29;20517;-80
2023/07/10 07:03:09;;;;;;;11.98;5.35;;;;;;;26.94;84.75;93297.06;4953731;28;20130;-80
2023/07/10 07:05:34;;;;;;;11.38;5.25;;;;;;;26.85;85.50;93296.59;4934172;29;20040;-78
2023/07/10 07:08:00;;;;;;;14.93;5.43;;;;;;;26.65;85.79;93293.34;4957501;29;20126;-81
2023/07/10 07:10:26;;;;;;;11.93;5.80;;;;;;;26.58;83.49;93289.41;4937081;29;20086;-83
2023/07/10 07:12:51;;;;;;;11.80;5.30;;;;;;;26.67;79.86;93283.75;4940831;29;20109;-83
2023/07/10 07:15:17;;;;;;;11.18;5.60;;;;;;;26.67;84.53;93299.09;4957045;28;20133;-83
2023/07/10 07:17:43;;;;;;;12.68;6.00;;;;;;;26.24;88.22;93291.31;4932027;29;20031;-82
2023/07/10 07:20:09;;;;;;;12.95;5.97;;;;;;;26.17;87.83;93296.59;4957554;29;20040;-80
2023/07/10 07:22:35;;;;;;;13.45;5.25;;;;;;;26.36;87.21;93298.34;4948648;29;20042;-82
2023/07/10 07:25:00;;;;;;;10.27;5.82;;;;;;;26.46;83.52;93296.94;4954978;28;20031;-81
2023/07/10 07:27:26;;;;;;;9.95;4.78;;;;;;;26.54;81.41;93295.88;4935882;29;20043;-82
2023/07/10 07:29:53;;;;;;;8.35;5.07;;;;;;;26.52;73.54;93298.16;4956147;29;20130;-81
2023/07/10 07:32:20;;;;;;;17.95;5.45;;;;;;;26.57;78.67;93292.50;4940700;28;20031;-82
2023/07/10 07:34:46;;;;;;;16.08;5.30;;;;;;;26.65;83.41;93288.72;4951895;29;20040;-82
2023/07/10 07:37:11;;;;;;;8.18;5.22;;;;;;;26.71;77.75;93292.63;4937052;29;20051;-82
2023/07/10 07:39:37;;;;;;;12.07;5.80;;;;;;;26.70;81.92;93291.06;4947787;29;20509;-82
2023/07/10 07:42:03;;;;;;;10.57;5.90;;;;;;;26.71;80.00;93292.63;4937999;29;20049;-82
2023/07/10 07:44:29;;;;;;;10.68;5.38;;;;;;;26.48;83.58;93290.06;4946101;29;20036;-82
2023/07/10 07:46:55;;;;;;;7.60;5.25;;;;;;;26.69;80.64;93286.84;4947247;28;20051;-82
2023/07/10 07:49:23;;;;;;;14.32;6.82;;;;;;;26.65;83.47;93283.34;4939596;29;20050;-81
2023/07/10 07:51:51;;;;;;;10.10;5.47;;;;;;;26.87;82.28;93288.94;4935954;29;20032;-81
2023/07/10 07:54:17;;;;;;;16.88;5.68;;;;;;;26.62;83.84;93292.16;4948897;28;20040;-82
2023/07/10 07:56:42;;;;;;;19.35;5.43;;;;;;;26.72;80.52;93288.78;4956951;28;20468;-80
2023/07/10 07:59:08;;;;;;;10.20;5.50;;;;;;;26.86;81.53;93284.72;4955249;29;20036;-82
2023/07/10 08:01:33;;;;;;;12.43;5.90;;;;;;;26.95;85.18;93282.50;4957108;29;20035;-82
2023/07/10 08:03:59;;;;;;;10.23;5.47;;;;;;;26.91;83.98;93279.03;4956665;29;20039;-82
2023/07/10 08:06:29;;;;;;;14.35;5.68;;;;;;;26.95;83.34;93280.59;4938459;29;20050;-82
2023/07/10 08:08:55;;;;;;;17.00;5.57;;;;;;;26.79;83.83;93283.53;4949909;28;20065;-82
2023/07/10 08:11:24;;;;;;;15.38;5.93;;;;;;;26.82;81.88;93270.47;4951503;29;20050;-82
2023/07/10 08:13:50;;;;;;;12.63;5.40;;;;;;;26.87;81.07;93272.84;4938581;29;20074;-80
2023/07/10 08:16:16;;;;;;;11.27;5.50;;;;;;;27.02;78.86;93281.78;4954490;28;20035;-84
2023/07/10 08:18:42;;;;;;;12.85;5.75;;;;;;;26.68;82.76;93271.09;4939272;29;20027;-82
2023/07/10 08:21:10;;;;;;;13.30;6.70;;;;;;;26.64;80.94;93264.91;4939289;29;20049;-83
2023/07/10 08:23:36;;;;;;;10.82;5.93;;;;;;;26.41;84.76;93273.09;4953492;28;20038;-83
2023/07/10 08:26:03;;;;;;;9.75;5.43;;;;;;;26.55;86.71;93263.31;4943928;28;20126;-83
2023/07/10 08:28:28;;;;;;;14.32;5.70;;;;;;;26.59;84.09;93266.03;4939298;29;20046;-83
2023/07/10 08:30:54;;;;;;;9.40;6.00;;;;;;;26.80;84.44;93260.13;4935785;29;20047;-82
2023/07/10 08:33:19;;;;;;;10.73;5.75;;;;;;;27.07;83.56;93260.75;4938919;28;20051;-83
2023/07/10 08:36:00;;;;;;;9.50;5.75;;;;;;;26.93;81.30;93255.22;4948783;28;20038;-84
2023/07/10 08:38:26;;;;;;;8.98;5.40;;;;;;;26.95;82.55;93258.31;4948551;29;20031;-85
2023/07/10 08:40:55;;;;;;;11.32;6.00;;;;;;;27.19;80.40;93263.13;4936391;29;20131;-83
2023/07/10 08:43:40;;;;;;;9.85;5.35;;;;;;;26.91;80.68;93257.53;4953162;28;20050;-85
2023/07/10 08:46:19;;;;;;;11.88;5.97;;;;;;;26.85;80.30;93259.00;4955709;28;20516;-84
2023/07/10 08:48:53;;;;;;;11.07;5.82;;;;;;;26.90;78.17;93255.97;4959066;29;20122;-84
2023/07/10 08:51:19;;;;;;;14.85;5.97;;;;;;;26.85;80.54;93261.69;4959134;29;20038;-84
2023/07/10 08:53:58;;;;;;;15.20;5.88;;;;;;;26.76;79.88;93257.38;4954813;28;20054;-83
2023/07/10 08:56:49;;;;;;;9.43;5.53;;;;;;;26.98;79.03;93257.59;4948611;29;20039;-84
2023/07/10 08:59:41;;;;;;;13.48;5.70;;;;;;;27.05;77.88;93263.03;4947189;28;20054;-84
2023/07/10 09:02:36;;;;;;;12.00;5.75;;;;;;;27.40;77.88;93265.25;4929890;29;20043;-84
2023/07/10 09:05:05;;;;;;;9.82;6.03;;;;;;;27.68;76.79;93261.19;4946278;28;20039;-84
2023/07/10 09:07:42;;;;;;;10.00;5.80;;;;;;;27.78;66.57;93265.84;4956569;28;20035;-84
2023/07/10 09:10:23;;;;;;;11.30;5.38;;;;;;;27.87;73.00;93257.47;4938653;29;20035;-85
2023/07/10 09:12:59;;;;;;;10.15;5.60;;;;;;;27.76;65.91;93256.63;4940542;29;20031;-84
2023/07/10 09:15:33;;;;;;;14.57;6.30;;;;;;;27.97;67.26;93261.41;4958022;28;20433;-84
2023/07/10 09:18:11;;;;;;;9.32;5.65;;;;;;;28.12;65.60;93254.13;4944704;29;20039;-84
2023/07/10 09:20:37;;;;;;;9.13;5.55;;;;;;;28.14;67.87;93251.84;4958380;29;20066;-84
2023/07/10 09:23:13;;;;;;;11.48;6.28;;;;;;;28.08;71.87;93253.34;4942843;29;20038;-84
2023/07/10 09:25:39;;;;;;;9.10;5.90;;;;;;;27.96;71.73;93252.53;4956971;28;20031;-83
2023/07/10 09:28:04;;;;;;;10.32;5.93;;;;;;;28.00;73.88;93255.25;4924418;29;20039;-84
2023/07/10 09:31:01;;;;;;;9.13;5.57;;;;;;;28.02;74.95;93248.34;4944780;29;20070;-85
2023/07/10 09:33:42;;;;;;;13.50;6.15;;;;;;;27.99;74.72;93243.72;4961036;29;20086;-83
2023/07/10 09:36:16;;;;;;;13.57;5.93;;;;;;;28.13;71.21;93253.00;4938523;29;20050;-85
2023/07/10 09:38:49;;;;;;;12.35;5.72;;;;;;;28.28;72.39;93248.44;4959066;29;20038;-83
2023/07/10 09:41:23;;;;;;;9.50;5.82;;;;;;;28.19;73.63;93244.19;4957510;28;20119;-84
2023/07/10 09:44:01;;;;;;;15.50;6.10;;;;;;;28.38;73.97;93248.47;4960341;28;20102;-85
2023/07/10 09:46:35;;;;;;;11.23;5.97;;;;;;;28.54;70.77;93250.84;4946165;29;20035;-84
2023/07/10 09:49:10;;;;;;;16.65;6.28;;;;;;;28.64;74.79;93241.25;4956420;28;20098;-84
2023/07/10 09:51:36;;;;;;;11.43;6.05;;;;;;;28.44;71.43;93255.03;4954476;28;20098;-81
2023/07/10 09:54:06;;;;;;;9.23;5.95;;;;;;;28.33;72.47;93256.94;4956837;29;20023;-84
2023/07/10 09:56:37;;;;;;;11.88;5.90;;;;;;;28.30;73.03;93257.66;4957339;28;20122;-83
2023/07/10 09:59:21;;;;;;;12.80;5.93;;;;;;;28.22;74.50;93254.19;4957563;28;20653;-84
2023/07/10 10:01:50;;;;;;;10.30;5.95;;;;;;;28.39;74.81;93252.72;4954471;28;20058;-84
2023/07/10 10:04:27;;;;;;;11.30;6.75;;;;;;;28.28;72.24;93243.84;4957568;29;20497;-85
2023/07/10 10:07:05;;;;;;;9.57;5.97;;;;;;;28.29;72.50;93236.53;4944244;29;20494;-84
2023/07/10 10:09:32;;;;;;;13.60;5.30;;;;;;;28.32;72.05;93246.53;4952598;28;20044;-84
2023/07/10 10:12:03;;;;;;;14.80;6.70;;;;;;;28.16;70.87;93230.72;4956556;29;20058;-84
2023/07/10 10:14:52;;;;;;;12.30;6.25;;;;;;;28.26;72.36;93239.97;4933242;29;20099;-84
2023/07/10 10:17:21;;;;;;;10.10;5.85;;;;;;;28.32;69.83;93244.59;4945405;29;20059;-83
2023/07/10 10:19:53;;;;;;;10.95;6.45;;;;;;;28.43;71.91;93250.78;4958174;29;20057;-84
2023/07/10 10:22:23;;;;;;;9.95;5.75;;;;;;;28.52;69.93;93237.00;4957893;28;20039;-84
2023/07/10 10:24:49;;;;;;;10.45;6.20;;;;;;;28.47;72.11;93248.16;4941068;28;20051;-84
2023/07/10 10:28:02;;;;;;;9.48;5.90;;;;;;;28.42;69.74;93243.13;4948212;29;20102;-84
2023/07/10 10:30:53;;;;;;;9.50;6.07;;;;;;;28.51;71.89;93248.16;4878192;29;20181;-84
2023/07/10 10:33:34;;;;;;;9.55;5.40;;;;;;;28.55;70.85;93249.72;4955304;28;20082;-84
2023/07/10 10:36:38;;;;;;;8.57;6.07;;;;;;;28.21;67.36;93249.19;4957664;28;20552;-84
2023/07/10 10:39:20;;;;;;;15.77;6.30;;;;;;;28.29;68.96;93245.38;4912754;29;20509;-83
2023/07/10 10:41:50;;;;;;;;;;;;;;;28.31;71.96;93243.06;4966892;28;20039;-83
2023/07/10 10:44:36;;;;;;;7.82;5.65;;;;;;;28.51;67.75;93240.09;4959755;28;19919;-83
2023/07/10 10:47:23;;;;;;;8.80;5.78;;;;;;;28.70;70.68;93233.59;4971420;28;20059;-83
2023/07/10 10:49:57;;;;;;;10.63;5.60;;;;;;;28.77;68.03;93231.66;4978532;28;20489;-84
2023/07/10 10:52:44;;;;;;;8.82;5.22;;;;;;;28.69;69.79;93232.03;4961963;28;20296;-82
2023/07/10 10:55:28;;;;;;;10.65;5.45;;;;;;;28.86;70.05;93228.59;4939302;29;20036;-82
2023/07/10 10:58:15;;;;;;;13.80;6.57;;;;;;;28.87;70.70;93235.53;4949773;29;20563;-84
2023/07/10 11:01:00;;;;;;;13.05;6.03;;;;;;;28.93;70.65;93227.81;4939331;29;20528;-85
2023/07/10 11:03:42;;;;;;;11.98;6.30;;;;;;;28.71;68.98;93230.50;4957563;28;20047;-84
2023/07/10 11:06:25;;;;;;;9.98;6.05;;;;;;;28.77;69.70;93222.81;4956062;28;20042;-85
2023/07/10 11:08:56;;;;;;;11.60;6.63;;;;;;;28.89;70.32;93222.44;4937024;29;20035;-84
2023/07/10 11:11:37;;;;;;;11.77;6.85;;;;;;;28.74;70.09;93224.34;4958266;29;20138;-84
2023/07/10 11:14:04;;;;;;;10.73;6.30;;;;;;;28.79;71.08;93218.56;4956516;28;20125;-83
2023/07/10 11:16:32;;;;;;;13.02;6.30;;;;;;;28.84;70.72;93220.91;4957561;28;20042;-83
2023/07/10 11:19:00;;;;;;;11.40;6.40;;;;;;;28.94;71.02;93208.59;4938774;29;20031;-82
2023/07/10 11:21:26;;;;;;;10.73;6.20;;;;;;;28.80;70.97;93217.44;4954799;28;20039;-82
2023/07/10 11:23:51;;;;;;;9.23;6.30;;;;;;;28.90;73.89;93218.59;4957117;29;20075;-83
2023/07/10 11:26:20;;;;;;;14.07;6.20;;;;;;;28.97;71.43;93212.44;4939948;29;20039;-82
2023/07/10 11:29:14;;;;;;;11.65;6.47;;;;;;;28.82;72.49;93212.44;4940466;28;20475;-83
2023/07/10 11:31:40;;;;;;;11.18;6.88;;;;;;;28.88;72.42;93209.34;4946514;29;20110;-83
2023/07/10 11:34:06;;;;;;;9.95;6.53;;;;;;;28.77;70.25;93209.34;4955658;28;20102;-82